Catarina, Texas
Current Conditions -  °F | °C
As of 4:55 AM on Wednesday 22 Oct 2014 (Local Time) from KCZT Reporting Station
Scattered Clouds Scattered Clouds  
Wind Chill: 66°   Ceiling: Unl
Heat Index: 66°   Visibility: 10mi
Dew Point: 63°   Wind: 3mph
Humidity: 88%   Direction: 100°E
Pressure: 30"   Gusts: NA
Location:  28.35°N, 99.61°W
Report Text: KCZT 220955Z AUTO 10003KT 10SM SCT120 19/17 A3000 RMK AO2
Loading
Personal Weather Stations






























Interactive Weather Map
Tropical Storm Tracking
New forecast layout! Learn more

10-Day Weather Forecast

Advertisements
Track Severe Weather on mobile